sensor_id;sensor_type;location;lat;lon;timestamp;P1;durP1;ratioP1;P2;durP2;ratioP2
5085;SDS011;4715;51.660;7.082;2023-03-01T00:00:07;5.83;;;4.80;;
5085;SDS011;4715;51.660;7.082;2023-03-01T00:02:30;4.23;;;3.90;;
5085;SDS011;4715;51.660;7.082;2023-03-01T00:04:52;5.30;;;3.53;;
5085;SDS011;4715;51.660;7.082;2023-03-01T00:07:15;3.80;;;3.10;;
5085;SDS011;4715;51.660;7.082;2023-03-01T00:09:37;4.50;;;4.10;;
5085;SDS011;4715;51.660;7.082;2023-03-01T00:12:00;3.97;;;3.57;;
5085;SDS011;4715;51.660;7.082;2023-03-01T00:14:22;4.40;;;3.33;;
5085;SDS011;4715;51.660;7.082;2023-03-01T00:16:44;3.80;;;3.57;;
5085;SDS011;4715;51.660;7.082;2023-03-01T00:19:07;4.57;;;3.50;;
5085;SDS011;4715;51.660;7.082;2023-03-01T00:21:33;4.23;;;3.57;;
5085;SDS011;4715;51.660;7.082;2023-03-01T00:23:56;3.27;;;3.07;;
5085;SDS011;4715;51.660;7.082;2023-03-01T00:26:19;5.30;;;3.30;;
5085;SDS011;4715;51.660;7.082;2023-03-01T00:28:42;4.10;;;3.70;;
5085;SDS011;4715;51.660;7.082;2023-03-01T00:31:05;3.90;;;3.47;;
5085;SDS011;4715;51.660;7.082;2023-03-01T00:33:28;3.70;;;3.33;;
5085;SDS011;4715;51.660;7.082;2023-03-01T00:35:49;3.20;;;2.90;;
5085;SDS011;4715;51.660;7.082;2023-03-01T00:38:12;4.20;;;3.90;;
5085;SDS011;4715;51.660;7.082;2023-03-01T00:40:36;3.97;;;3.53;;
5085;SDS011;4715;51.660;7.082;2023-03-01T00:42:58;3.50;;;3.20;;
5085;SDS011;4715;51.660;7.082;2023-03-01T00:45:20;3.50;;;3.20;;
5085;SDS011;4715;51.660;7.082;2023-03-01T00:47:41;3.67;;;3.37;;
5085;SDS011;4715;51.660;7.082;2023-03-01T00:50:03;4.90;;;3.50;;
5085;SDS011;4715;51.660;7.082;2023-03-01T00:52:26;2.90;;;2.70;;
5085;SDS011;4715;51.660;7.082;2023-03-01T00:54:48;2.90;;;2.70;;
5085;SDS011;4715;51.660;7.082;2023-03-01T00:57:14;3.50;;;3.20;;
5085;SDS011;4715;51.660;7.082;2023-03-01T00:59:36;4.07;;;3.53;;
5085;SDS011;4715;51.660;7.082;2023-03-01T01:01:58;5.80;;;3.27;;
5085;SDS011;4715;51.660;7.082;2023-03-01T01:04:19;3.10;;;2.77;;
5085;SDS011;4715;51.660;7.082;2023-03-01T01:06:42;2.93;;;2.73;;
5085;SDS011;4715;51.660;7.082;2023-03-01T01:09:07;3.03;;;2.83;;
5085;SDS011;4715;51.660;7.082;2023-03-01T01:11:30;3.40;;;3.20;;
5085;SDS011;4715;51.660;7.082;2023-03-01T01:13:54;8.60;;;3.00;;
5085;SDS011;4715;51.660;7.082;2023-03-01T01:16:17;3.43;;;3.13;;
5085;SDS011;4715;51.660;7.082;2023-03-01T01:18:40;3.30;;;3.00;;
5085;SDS011;4715;51.660;7.082;2023-03-01T01:21:04;5.07;;;2.90;;
5085;SDS011;4715;51.660;7.082;2023-03-01T01:23:27;3.27;;;2.93;;
5085;SDS011;4715;51.660;7.082;2023-03-01T01:25:48;3.07;;;2.87;;
5085;SDS011;4715;51.660;7.082;2023-03-01T01:28:10;3.60;;;3.30;;
5085;SDS011;4715;51.660;7.082;2023-03-01T01:30:33;2.70;;;2.50;;
5085;SDS011;4715;51.660;7.082;2023-03-01T01:32:55;3.10;;;2.90;;
5085;SDS011;4715;51.660;7.082;2023-03-01T01:35:17;2.80;;;2.70;;
5085;SDS011;4715;51.660;7.082;2023-03-01T01:37:39;4.93;;;3.10;;
5085;SDS011;4715;51.660;7.082;2023-03-01T01:40:01;3.60;;;3.30;;
5085;SDS011;4715;51.660;7.082;2023-03-01T01:42:24;2.77;;;2.60;;
5085;SDS011;4715;51.660;7.082;2023-03-01T01:44:47;3.30;;;3.03;;
5085;SDS011;4715;51.660;7.082;2023-03-01T01:47:13;4.10;;;3.37;;
5085;SDS011;4715;51.660;7.082;2023-03-01T01:49:38;2.97;;;2.77;;
5085;SDS011;4715;51.660;7.082;2023-03-01T01:52:05;3.47;;;3.17;;
5085;SDS011;4715;51.660;7.082;2023-03-01T01:54:31;3.80;;;3.07;;
5085;SDS011;4715;51.660;7.082;2023-03-01T01:57:01;2.97;;;2.80;;
5085;SDS011;4715;51.660;7.082;2023-03-01T01:59:28;3.27;;;3.07;;
5085;SDS011;4715;51.660;7.082;2023-03-01T02:01:51;7.47;;;3.20;;
5085;SDS011;4715;51.660;7.082;2023-03-01T02:04:15;3.43;;;3.10;;
5085;SDS011;4715;51.660;7.082;2023-03-01T02:06:37;2.97;;;2.77;;
5085;SDS011;4715;51.660;7.082;2023-03-01T02:09:07;3.87;;;3.57;;
5085;SDS011;4715;51.660;7.082;2023-03-01T02:11:32;3.27;;;2.97;;
5085;SDS011;4715;51.660;7.082;2023-03-01T02:13:57;4.60;;;3.13;;
5085;SDS011;4715;51.660;7.082;2023-03-01T02:16:19;3.57;;;2.90;;
5085;SDS011;4715;51.660;7.082;2023-03-01T02:18:41;3.17;;;2.87;;
5085;SDS011;4715;51.660;7.082;2023-03-01T02:23:50;3.30;;;3.10;;
5085;SDS011;4715;51.660;7.082;2023-03-01T02:26:15;3.50;;;3.20;;
5085;SDS011;4715;51.660;7.082;2023-03-01T02:28:42;3.27;;;3.00;;
5085;SDS011;4715;51.660;7.082;2023-03-01T02:31:05;3.33;;;3.07;;
5085;SDS011;4715;51.660;7.082;2023-03-01T02:33:45;2.97;;;2.77;;
5085;SDS011;4715;51.660;7.082;2023-03-01T02:36:09;3.60;;;2.70;;
5085;SDS011;4715;51.660;7.082;2023-03-01T02:38:33;3.00;;;2.70;;
5085;SDS011;4715;51.660;7.082;2023-03-01T02:40:54;3.30;;;3.10;;
5085;SDS011;4715;51.660;7.082;2023-03-01T02:43:18;3.33;;;3.13;;
5085;SDS011;4715;51.660;7.082;2023-03-01T02:45:49;3.70;;;3.00;;
5085;SDS011;4715;51.660;7.082;2023-03-01T02:48:12;2.70;;;2.60;;
5085;SDS011;4715;51.660;7.082;2023-03-01T02:50:41;2.90;;;2.70;;
5085;SDS011;4715;51.660;7.082;2023-03-01T02:53:13;3.73;;;3.40;;
5085;SDS011;4715;51.660;7.082;2023-03-01T02:55:37;3.10;;;2.60;;
5085;SDS011;4715;51.660;7.082;2023-03-01T02:57:59;3.47;;;3.17;;
5085;SDS011;4715;51.660;7.082;2023-03-01T03:00:24;3.50;;;3.20;;
5085;SDS011;4715;51.660;7.082;2023-03-01T03:02:51;3.70;;;3.30;;
5085;SDS011;4715;51.660;7.082;2023-03-01T03:05:14;3.27;;;3.07;;
5085;SDS011;4715;51.660;7.082;2023-03-01T03:07:39;3.70;;;3.40;;
5085;SDS011;4715;51.660;7.082;2023-03-01T03:10:02;4.10;;;3.80;;
5085;SDS011;4715;51.660;7.082;2023-03-01T03:12:25;3.67;;;3.47;;
5085;SDS011;4715;51.660;7.082;2023-03-01T03:14:47;4.47;;;4.07;;
5085;SDS011;4715;51.660;7.082;2023-03-01T03:17:09;4.97;;;4.03;;
5085;SDS011;4715;51.660;7.082;2023-03-01T03:19:32;3.10;;;2.87;;
5085;SDS011;4715;51.660;7.082;2023-03-01T03:21:54;3.67;;;3.37;;
5085;SDS011;4715;51.660;7.082;2023-03-01T03:24:16;4.03;;;3.20;;
5085;SDS011;4715;51.660;7.082;2023-03-01T03:26:38;3.10;;;2.90;;
5085;SDS011;4715;51.660;7.082;2023-03-01T03:29:00;4.10;;;3.30;;
5085;SDS011;4715;51.660;7.082;2023-03-01T03:31:22;3.80;;;2.90;;
5085;SDS011;4715;51.660;7.082;2023-03-01T03:33:44;4.07;;;3.40;;
5085;SDS011;4715;51.660;7.082;2023-03-01T03:36:07;2.80;;;2.60;;
5085;SDS011;4715;51.660;7.082;2023-03-01T03:38:33;2.97;;;2.77;;
5085;SDS011;4715;51.660;7.082;2023-03-01T03:40:59;3.03;;;2.83;;
5085;SDS011;4715;51.660;7.082;2023-03-01T03:43:23;4.30;;;3.90;;
5085;SDS011;4715;51.660;7.082;2023-03-01T03:45:45;5.10;;;2.97;;
5085;SDS011;4715;51.660;7.082;2023-03-01T03:48:08;4.10;;;3.40;;
5085;SDS011;4715;51.660;7.082;2023-03-01T03:50:30;3.93;;;3.63;;
5085;SDS011;4715;51.660;7.082;2023-03-01T03:52:54;3.23;;;2.90;;
5085;SDS011;4715;51.660;7.082;2023-03-01T03:55:16;4.37;;;3.67;;
5085;SDS011;4715;51.660;7.082;2023-03-01T03:57:41;3.03;;;2.83;;
5085;SDS011;4715;51.660;7.082;2023-03-01T04:00:03;3.93;;;3.50;;
5085;SDS011;4715;51.660;7.082;2023-03-01T04:02:32;3.70;;;3.40;;
5085;SDS011;4715;51.660;7.082;2023-03-01T04:04:54;5.47;;;4.20;;
5085;SDS011;4715;51.660;7.082;2023-03-01T04:07:16;3.60;;;3.30;;
5085;SDS011;4715;51.660;7.082;2023-03-01T04:09:39;3.07;;;2.87;;
5085;SDS011;4715;51.660;7.082;2023-03-01T04:12:02;3.20;;;3.00;;
5085;SDS011;4715;51.660;7.082;2023-03-01T04:14:24;4.30;;;3.80;;
5085;SDS011;4715;51.660;7.082;2023-03-01T04:16:46;3.70;;;3.43;;
5085;SDS011;4715;51.660;7.082;2023-03-01T04:19:07;5.37;;;4.20;;
5085;SDS011;4715;51.660;7.082;2023-03-01T04:21:29;3.50;;;3.30;;
5085;SDS011;4715;51.660;7.082;2023-03-01T04:23:51;3.80;;;3.50;;
5085;SDS011;4715;51.660;7.082;2023-03-01T04:26:15;3.70;;;3.33;;
5085;SDS011;4715;51.660;7.082;2023-03-01T04:28:37;3.67;;;3.40;;
5085;SDS011;4715;51.660;7.082;2023-03-01T04:31:03;4.73;;;3.83;;
5085;SDS011;4715;51.660;7.082;2023-03-01T04:33:32;4.07;;;3.80;;
5085;SDS011;4715;51.660;7.082;2023-03-01T04:35:54;4.20;;;3.70;;
5085;SDS011;4715;51.660;7.082;2023-03-01T04:38:18;4.10;;;3.70;;
5085;SDS011;4715;51.660;7.082;2023-03-01T04:40:41;4.33;;;3.87;;
5085;SDS011;4715;51.660;7.082;2023-03-01T04:43:04;4.03;;;3.73;;
5085;SDS011;4715;51.660;7.082;2023-03-01T04:45:26;3.93;;;3.63;;
5085;SDS011;4715;51.660;7.082;2023-03-01T04:47:48;3.63;;;3.43;;
5085;SDS011;4715;51.660;7.082;2023-03-01T04:50:13;4.37;;;4.07;;
5085;SDS011;4715;51.660;7.082;2023-03-01T04:52:36;3.40;;;3.20;;
5085;SDS011;4715;51.660;7.082;2023-03-01T04:54:58;5.20;;;3.43;;
5085;SDS011;4715;51.660;7.082;2023-03-01T04:57:20;5.53;;;3.40;;
5085;SDS011;4715;51.660;7.082;2023-03-01T04:59:43;4.43;;;4.03;;
5085;SDS011;4715;51.660;7.082;2023-03-01T05:02:05;4.90;;;3.80;;
5085;SDS011;4715;51.660;7.082;2023-03-01T05:24:13;4.97;;;4.47;;
5085;SDS011;4715;51.660;7.082;2023-03-01T05:26:35;4.20;;;3.80;;
5085;SDS011;4715;51.660;7.082;2023-03-01T05:29:00;4.10;;;3.67;;
5085;SDS011;4715;51.660;7.082;2023-03-01T05:31:22;3.70;;;3.40;;
5085;SDS011;4715;51.660;7.082;2023-03-01T05:33:43;6.13;;;4.37;;
5085;SDS011;4715;51.660;7.082;2023-03-01T05:36:06;4.40;;;4.10;;
5085;SDS011;4715;51.660;7.082;2023-03-01T05:38:29;5.10;;;4.10;;
5085;SDS011;4715;51.660;7.082;2023-03-01T05:40:52;4.07;;;3.70;;
5085;SDS011;4715;51.660;7.082;2023-03-01T05:43:15;3.77;;;3.47;;
5085;SDS011;4715;51.660;7.082;2023-03-01T05:45:38;5.23;;;4.73;;
5085;SDS011;4715;51.660;7.082;2023-03-01T05:48:00;3.50;;;3.20;;
5085;SDS011;4715;51.660;7.082;2023-03-01T05:50:23;7.30;;;4.60;;
5085;SDS011;4715;51.660;7.082;2023-03-01T05:52:46;4.90;;;3.30;;
5085;SDS011;4715;51.660;7.082;2023-03-01T05:55:09;4.57;;;4.10;;
5085;SDS011;4715;51.660;7.082;2023-03-01T05:57:33;4.50;;;3.80;;
5085;SDS011;4715;51.660;7.082;2023-03-01T05:59:55;3.97;;;3.67;;
5085;SDS011;4715;51.660;7.082;2023-03-01T06:02:17;3.97;;;3.57;;
5085;SDS011;4715;51.660;7.082;2023-03-01T06:04:39;5.13;;;3.87;;
5085;SDS011;4715;51.660;7.082;2023-03-01T06:07:01;4.10;;;3.80;;
5085;SDS011;4715;51.660;7.082;2023-03-01T06:09:23;4.67;;;4.27;;
5085;SDS011;4715;51.660;7.082;2023-03-01T06:11:45;3.80;;;3.30;;
5085;SDS011;4715;51.660;7.082;2023-03-01T06:14:09;4.90;;;3.77;;
5085;SDS011;4715;51.660;7.082;2023-03-01T06:16:34;3.70;;;3.40;;
5085;SDS011;4715;51.660;7.082;2023-03-01T06:18:58;5.30;;;4.20;;
5085;SDS011;4715;51.660;7.082;2023-03-01T06:21:19;4.97;;;4.00;;
5085;SDS011;4715;51.660;7.082;2023-03-01T06:23:41;4.67;;;4.27;;
5085;SDS011;4715;51.660;7.082;2023-03-01T06:26:05;6.10;;;4.83;;
5085;SDS011;4715;51.660;7.082;2023-03-01T06:28:28;5.83;;;5.23;;
5085;SDS011;4715;51.660;7.082;2023-03-01T06:30:51;5.97;;;5.33;;
5085;SDS011;4715;51.660;7.082;2023-03-01T06:33:13;11.53;;;6.70;;
5085;SDS011;4715;51.660;7.082;2023-03-01T06:35:35;9.60;;;6.23;;
5085;SDS011;4715;51.660;7.082;2023-03-01T06:37:57;10.30;;;7.90;;
5085;SDS011;4715;51.660;7.082;2023-03-01T06:40:20;12.60;;;7.90;;
5085;SDS011;4715;51.660;7.082;2023-03-01T06:42:42;7.70;;;5.80;;
5085;SDS011;4715;51.660;7.082;2023-03-01T06:45:09;9.70;;;6.90;;
5085;SDS011;4715;51.660;7.082;2023-03-01T06:47:33;10.30;;;6.97;;
5085;SDS011;4715;51.660;7.082;2023-03-01T06:49:55;8.50;;;6.60;;
5085;SDS011;4715;51.660;7.082;2023-03-01T06:52:17;7.10;;;5.13;;
5085;SDS011;4715;51.660;7.082;2023-03-01T06:54:38;8.00;;;6.17;;
5085;SDS011;4715;51.660;7.082;2023-03-01T06:57:02;7.80;;;6.87;;
5085;SDS011;4715;51.660;7.082;2023-03-01T06:59:23;8.67;;;7.70;;
5085;SDS011;4715;51.660;7.082;2023-03-01T07:01:45;10.33;;;7.70;;
5085;SDS011;4715;51.660;7.082;2023-03-01T07:04:08;11.40;;;6.80;;
5085;SDS011;4715;51.660;7.082;2023-03-01T07:06:31;15.33;;;7.03;;
5085;SDS011;4715;51.660;7.082;2023-03-01T07:08:53;11.10;;;7.47;;
5085;SDS011;4715;51.660;7.082;2023-03-01T07:11:15;11.13;;;7.43;;
5085;SDS011;4715;51.660;7.082;2023-03-01T07:13:37;9.77;;;6.93;;
5085;SDS011;4715;51.660;7.082;2023-03-01T07:15:59;12.37;;;7.00;;
5085;SDS011;4715;51.660;7.082;2023-03-01T07:18:21;13.43;;;7.23;;
5085;SDS011;4715;51.660;7.082;2023-03-01T07:20:45;9.90;;;6.33;;
5085;SDS011;4715;51.660;7.082;2023-03-01T07:23:06;7.70;;;6.47;;
5085;SDS011;4715;51.660;7.082;2023-03-01T07:25:28;14.00;;;7.53;;
5085;SDS011;4715;51.660;7.082;2023-03-01T07:27:50;8.43;;;6.73;;
5085;SDS011;4715;51.660;7.082;2023-03-01T07:30:12;11.40;;;7.00;;
5085;SDS011;4715;51.660;7.082;2023-03-01T07:32:35;9.00;;;6.40;;
5085;SDS011;4715;51.660;7.082;2023-03-01T07:34:57;9.60;;;6.50;;
5085;SDS011;4715;51.660;7.082;2023-03-01T07:37:20;8.53;;;6.57;;
5085;SDS011;4715;51.660;7.082;2023-03-01T07:39:42;7.60;;;5.87;;
5085;SDS011;4715;51.660;7.082;2023-03-01T07:42:04;6.33;;;5.70;;
5085;SDS011;4715;51.660;7.082;2023-03-01T07:44:25;8.67;;;5.93;;
5085;SDS011;4715;51.660;7.082;2023-03-01T07:46:48;7.10;;;5.97;;
5085;SDS011;4715;51.660;7.082;2023-03-01T07:49:12;7.27;;;5.37;;
5085;SDS011;4715;51.660;7.082;2023-03-01T07:51:34;9.40;;;6.13;;
5085;SDS011;4715;51.660;7.082;2023-03-01T07:53:57;6.93;;;5.97;;
5085;SDS011;4715;51.660;7.082;2023-03-01T07:56:19;7.23;;;6.60;;
5085;SDS011;4715;51.660;7.082;2023-03-01T07:58:42;8.87;;;5.73;;
5085;SDS011;4715;51.660;7.082;2023-03-01T08:01:05;6.90;;;6.20;;
5085;SDS011;4715;51.660;7.082;2023-03-01T08:03:29;9.13;;;6.67;;
5085;SDS011;4715;51.660;7.082;2023-03-01T08:05:51;9.57;;;6.63;;
5085;SDS011;4715;51.660;7.082;2023-03-01T08:08:12;6.60;;;5.53;;
5085;SDS011;4715;51.660;7.082;2023-03-01T08:10:36;7.00;;;6.27;;
5085;SDS011;4715;51.660;7.082;2023-03-01T08:12:58;7.53;;;5.83;;
5085;SDS011;4715;51.660;7.082;2023-03-01T08:15:20;6.77;;;5.97;;
5085;SDS011;4715;51.660;7.082;2023-03-01T08:17:41;8.10;;;5.93;;
5085;SDS011;4715;51.660;7.082;2023-03-01T08:20:04;7.10;;;6.00;;
5085;SDS011;4715;51.660;7.082;2023-03-01T08:22:27;14.33;;;7.23;;
5085;SDS011;4715;51.660;7.082;2023-03-01T08:24:48;8.40;;;6.10;;
5085;SDS011;4715;51.660;7.082;2023-03-01T08:27:12;6.40;;;5.80;;
5085;SDS011;4715;51.660;7.082;2023-03-01T08:29:38;6.50;;;5.90;;
5085;SDS011;4715;51.660;7.082;2023-03-01T08:32:00;8.03;;;5.90;;
5085;SDS011;4715;51.660;7.082;2023-03-01T08:34:21;6.30;;;5.60;;
5085;SDS011;4715;51.660;7.082;2023-03-01T08:36:47;7.87;;;5.70;;
5085;SDS011;4715;51.660;7.082;2023-03-01T08:39:10;10.70;;;5.57;;
5085;SDS011;4715;51.660;7.082;2023-03-01T08:41:36;6.77;;;6.00;;
5085;SDS011;4715;51.660;7.082;2023-03-01T08:43:59;6.10;;;5.60;;
5085;SDS011;4715;51.660;7.082;2023-03-01T08:46:21;9.50;;;5.80;;
5085;SDS011;4715;51.660;7.082;2023-03-01T08:48:43;7.57;;;5.77;;
5085;SDS011;4715;51.660;7.082;2023-03-01T08:51:07;7.90;;;6.03;;
5085;SDS011;4715;51.660;7.082;2023-03-01T08:53:30;9.10;;;6.40;;
5085;SDS011;4715;51.660;7.082;2023-03-01T08:55:53;6.80;;;6.13;;
5085;SDS011;4715;51.660;7.082;2023-03-01T08:58:17;9.00;;;6.17;;
5085;SDS011;4715;51.660;7.082;2023-03-01T09:00:41;7.10;;;6.43;;
5085;SDS011;4715;51.660;7.082;2023-03-01T09:03:03;6.83;;;6.13;;
5085;SDS011;4715;51.660;7.082;2023-03-01T09:05:26;7.03;;;5.80;;
5085;SDS011;4715;51.660;7.082;2023-03-01T09:07:47;7.77;;;6.10;;
5085;SDS011;4715;51.660;7.082;2023-03-01T09:10:10;7.73;;;6.53;;
5085;SDS011;4715;51.660;7.082;2023-03-01T09:12:32;6.23;;;5.73;;
5085;SDS011;4715;51.660;7.082;2023-03-01T09:14:54;5.83;;;5.30;;
5085;SDS011;4715;51.660;7.082;2023-03-01T09:17:17;7.50;;;5.87;;
5085;SDS011;4715;51.660;7.082;2023-03-01T09:19:41;5.87;;;5.30;;
5085;SDS011;4715;51.660;7.082;2023-03-01T09:22:03;6.57;;;5.90;;
5085;SDS011;4715;51.660;7.082;2023-03-01T09:24:25;6.47;;;5.97;;
5085;SDS011;4715;51.660;7.082;2023-03-01T09:26:47;9.27;;;5.90;;
5085;SDS011;4715;51.660;7.082;2023-03-01T09:29:10;9.53;;;6.10;;
5085;SDS011;4715;51.660;7.082;2023-03-01T09:31:31;10.63;;;6.57;;
5085;SDS011;4715;51.660;7.082;2023-03-01T09:33:58;7.97;;;6.40;;
5085;SDS011;4715;51.660;7.082;2023-03-01T09:36:20;9.10;;;5.70;;
5085;SDS011;4715;51.660;7.082;2023-03-01T09:38:45;7.60;;;5.97;;
5085;SDS011;4715;51.660;7.082;2023-03-01T09:41:09;6.07;;;5.47;;
5085;SDS011;4715;51.660;7.082;2023-03-01T09:43:42;8.50;;;6.30;;
5085;SDS011;4715;51.660;7.082;2023-03-01T09:46:09;7.90;;;6.10;;
5085;SDS011;4715;51.660;7.082;2023-03-01T09:48:37;7.10;;;5.67;;
5085;SDS011;4715;51.660;7.082;2023-03-01T09:51:05;7.63;;;5.80;;
5085;SDS011;4715;51.660;7.082;2023-03-01T09:53:33;7.63;;;6.60;;
5085;SDS011;4715;51.660;7.082;2023-03-01T09:55:58;6.63;;;5.40;;
5085;SDS011;4715;51.660;7.082;2023-03-01T09:58:33;6.10;;;5.50;;
5085;SDS011;4715;51.660;7.082;2023-03-01T10:01:12;6.60;;;4.60;;
5085;SDS011;4715;51.660;7.082;2023-03-01T10:03:49;7.83;;;5.80;;
5085;SDS011;4715;51.660;7.082;2023-03-01T10:06:29;5.40;;;4.63;;
5085;SDS011;4715;51.660;7.082;2023-03-01T10:08:53;7.33;;;5.47;;
5085;SDS011;4715;51.660;7.082;2023-03-01T10:11:19;8.77;;;5.57;;
5085;SDS011;4715;51.660;7.082;2023-03-01T10:13:45;6.80;;;4.87;;
5085;SDS011;4715;51.660;7.082;2023-03-01T10:16:10;7.67;;;4.70;;
5085;SDS011;4715;51.660;7.082;2023-03-01T10:18:36;6.17;;;5.57;;
5085;SDS011;4715;51.660;7.082;2023-03-01T10:21:01;6.00;;;5.20;;
5085;SDS011;4715;51.660;7.082;2023-03-01T10:23:26;5.20;;;4.70;;
5085;SDS011;4715;51.660;7.082;2023-03-01T10:25:57;4.80;;;4.50;;
5085;SDS011;4715;51.660;7.082;2023-03-01T10:28:31;5.03;;;4.53;;
5085;SDS011;4715;51.660;7.082;2023-03-01T10:31:02;4.30;;;3.90;;
5085;SDS011;4715;51.660;7.082;2023-03-01T10:33:25;6.17;;;5.47;;
5085;SDS011;4715;51.660;7.082;2023-03-01T10:35:50;5.10;;;4.60;;
5085;SDS011;4715;51.660;7.082;2023-03-01T10:38:13;5.47;;;4.90;;
5085;SDS011;4715;51.660;7.082;2023-03-01T10:40:50;8.43;;;5.40;;
5085;SDS011;4715;51.660;7.082;2023-03-01T10:43:13;5.23;;;4.73;;
5085;SDS011;4715;51.660;7.082;2023-03-01T10:45:37;5.10;;;4.60;;
5085;SDS011;4715;51.660;7.082;2023-03-01T10:48:11;4.77;;;4.37;;
5085;SDS011;4715;51.660;7.082;2023-03-01T10:50:34;7.17;;;5.50;;
5085;SDS011;4715;51.660;7.082;2023-03-01T10:52:58;6.30;;;5.67;;
5085;SDS011;4715;51.660;7.082;2023-03-01T10:55:23;5.87;;;5.10;;
5085;SDS011;4715;51.660;7.082;2023-03-01T10:57:50;5.57;;;5.00;;
5085;SDS011;4715;51.660;7.082;2023-03-01T11:00:28;11.20;;;6.10;;
5085;SDS011;4715;51.660;7.082;2023-03-01T11:02:51;5.70;;;5.07;;
5085;SDS011;4715;51.660;7.082;2023-03-01T11:05:25;6.93;;;5.60;;
5085;SDS011;4715;51.660;7.082;2023-03-01T11:07:49;6.23;;;4.70;;
5085;SDS011;4715;51.660;7.082;2023-03-01T11:10:11;6.00;;;5.30;;
5085;SDS011;4715;51.660;7.082;2023-03-01T11:12:38;6.20;;;5.00;;
5085;SDS011;4715;51.660;7.082;2023-03-01T11:15:01;5.47;;;4.97;;
5085;SDS011;4715;51.660;7.082;2023-03-01T11:17:25;6.90;;;5.60;;
5085;SDS011;4715;51.660;7.082;2023-03-01T11:19:59;5.80;;;5.20;;
5085;SDS011;4715;51.660;7.082;2023-03-01T11:22:23;5.33;;;4.83;;
5085;SDS011;4715;51.660;7.082;2023-03-01T11:24:46;5.80;;;5.20;;
5085;SDS011;4715;51.660;7.082;2023-03-01T11:27:18;7.50;;;5.73;;
5085;SDS011;4715;51.660;7.082;2023-03-01T11:29:43;4.80;;;4.37;;
5085;SDS011;4715;51.660;7.082;2023-03-01T11:32:13;5.50;;;5.07;;
5085;SDS011;4715;51.660;7.082;2023-03-01T11:34:38;4.80;;;4.50;;
5085;SDS011;4715;51.660;7.082;2023-03-01T11:37:08;5.70;;;5.20;;
5085;SDS011;4715;51.660;7.082;2023-03-01T11:39:37;8.70;;;5.10;;
5085;SDS011;4715;51.660;7.082;2023-03-01T11:42:02;5.70;;;4.97;;
5085;SDS011;4715;51.660;7.082;2023-03-01T11:44:33;4.97;;;4.60;;
5085;SDS011;4715;51.660;7.082;2023-03-01T11:47:05;7.33;;;6.60;;
5085;SDS011;4715;51.660;7.082;2023-03-01T11:49:48;6.77;;;5.47;;
5085;SDS011;4715;51.660;7.082;2023-03-01T11:52:20;6.53;;;5.97;;
5085;SDS011;4715;51.660;7.082;2023-03-01T11:54:50;5.30;;;4.70;;
5085;SDS011;4715;51.660;7.082;2023-03-01T11:57:25;7.90;;;5.27;;
5085;SDS011;4715;51.660;7.082;2023-03-01T12:00:12;5.90;;;5.30;;
5085;SDS011;4715;51.660;7.082;2023-03-01T12:02:59;5.50;;;4.87;;
5085;SDS011;4715;51.660;7.082;2023-03-01T12:05:53;6.53;;;5.90;;
5085;SDS011;4715;51.660;7.082;2023-03-01T12:08:26;6.70;;;4.33;;
5085;SDS011;4715;51.660;7.082;2023-03-01T12:11:11;8.20;;;5.60;;
5085;SDS011;4715;51.660;7.082;2023-03-01T12:13:56;7.40;;;5.33;;
5085;SDS011;4715;51.660;7.082;2023-03-01T12:16:29;6.70;;;5.53;;
5085;SDS011;4715;51.660;7.082;2023-03-01T12:19:04;12.37;;;6.07;;
5085;SDS011;4715;51.660;7.082;2023-03-01T12:24:49;8.63;;;6.13;;
5085;SDS011;4715;51.660;7.082;2023-03-01T12:30:13;6.77;;;5.43;;
5085;SDS011;4715;51.660;7.082;2023-03-01T12:32:47;7.67;;;5.17;;
5085;SDS011;4715;51.660;7.082;2023-03-01T12:35:21;7.50;;;5.70;;
5085;SDS011;4715;51.660;7.082;2023-03-01T12:37:55;10.20;;;6.43;;
5085;SDS011;4715;51.660;7.082;2023-03-01T12:40:42;6.73;;;5.77;;
5085;SDS011;4715;51.660;7.082;2023-03-01T12:43:20;7.23;;;5.87;;
5085;SDS011;4715;51.660;7.082;2023-03-01T12:45:54;8.63;;;5.47;;
5085;SDS011;4715;51.660;7.082;2023-03-01T12:48:41;7.73;;;6.33;;
5085;SDS011;4715;51.660;7.082;2023-03-01T12:51:13;7.63;;;6.07;;
5085;SDS011;4715;51.660;7.082;2023-03-01T12:53:40;7.80;;;6.10;;
5085;SDS011;4715;51.660;7.082;2023-03-01T12:56:05;7.17;;;5.80;;
5085;SDS011;4715;51.660;7.082;2023-03-01T12:58:31;7.40;;;6.10;;
5085;SDS011;4715;51.660;7.082;2023-03-01T13:01:00;6.27;;;5.07;;
5085;SDS011;4715;51.660;7.082;2023-03-01T13:03:38;8.37;;;6.10;;
5085;SDS011;4715;51.660;7.082;2023-03-01T13:06:17;6.40;;;5.77;;
5085;SDS011;4715;51.660;7.082;2023-03-01T13:08:54;6.80;;;5.33;;
5085;SDS011;4715;51.660;7.082;2023-03-01T13:11:21;6.70;;;6.03;;
5085;SDS011;4715;51.660;7.082;2023-03-01T13:13:43;7.90;;;6.00;;
5085;SDS011;4715;51.660;7.082;2023-03-01T13:16:38;6.50;;;5.40;;
5085;SDS011;4715;51.660;7.082;2023-03-01T13:19:08;10.33;;;5.40;;
5085;SDS011;4715;51.660;7.082;2023-03-01T13:21:35;8.80;;;6.30;;
5085;SDS011;4715;51.660;7.082;2023-03-01T13:23:58;14.53;;;6.93;;
5085;SDS011;4715;51.660;7.082;2023-03-01T13:26:20;8.00;;;5.70;;
5085;SDS011;4715;51.660;7.082;2023-03-01T13:37:13;11.13;;;6.43;;
5085;SDS011;4715;51.660;7.082;2023-03-01T13:39:47;7.00;;;5.73;;
5085;SDS011;4715;51.660;7.082;2023-03-01T13:45:01;7.97;;;6.43;;
5085;SDS011;4715;51.660;7.082;2023-03-01T13:47:24;6.87;;;5.50;;
5085;SDS011;4715;51.660;7.082;2023-03-01T13:49:49;6.73;;;5.80;;
5085;SDS011;4715;51.660;7.082;2023-03-01T13:52:24;8.23;;;6.50;;
5085;SDS011;4715;51.660;7.082;2023-03-01T13:55:01;8.37;;;6.00;;
5085;SDS011;4715;51.660;7.082;2023-03-01T13:57:26;8.40;;;6.63;;
5085;SDS011;4715;51.660;7.082;2023-03-01T13:59:54;7.33;;;6.30;;
5085;SDS011;4715;51.660;7.082;2023-03-01T14:02:16;7.47;;;6.30;;
5085;SDS011;4715;51.660;7.082;2023-03-01T14:04:38;7.13;;;6.43;;
5085;SDS011;4715;51.660;7.082;2023-03-01T14:07:10;11.23;;;6.60;;
5085;SDS011;4715;51.660;7.082;2023-03-01T14:09:32;7.70;;;6.60;;
5085;SDS011;4715;51.660;7.082;2023-03-01T14:14:45;8.40;;;6.13;;
5085;SDS011;4715;51.660;7.082;2023-03-01T14:17:26;7.43;;;5.97;;
5085;SDS011;4715;51.660;7.082;2023-03-01T14:19:57;6.53;;;5.90;;
5085;SDS011;4715;51.660;7.082;2023-03-01T14:22:21;6.83;;;6.23;;
5085;SDS011;4715;51.660;7.082;2023-03-01T14:24:46;7.27;;;6.57;;
5085;SDS011;4715;51.660;7.082;2023-03-01T14:27:11;6.43;;;5.77;;
5085;SDS011;4715;51.660;7.082;2023-03-01T14:29:37;5.90;;;5.03;;
5085;SDS011;4715;51.660;7.082;2023-03-01T14:32:08;6.50;;;5.90;;
5085;SDS011;4715;51.660;7.082;2023-03-01T14:34:31;6.70;;;5.63;;
5085;SDS011;4715;51.660;7.082;2023-03-01T14:36:53;7.57;;;5.50;;
5085;SDS011;4715;51.660;7.082;2023-03-01T14:39:16;8.30;;;5.37;;
5085;SDS011;4715;51.660;7.082;2023-03-01T14:41:39;7.57;;;5.90;;
5085;SDS011;4715;51.660;7.082;2023-03-01T14:44:02;6.47;;;5.27;;
5085;SDS011;4715;51.660;7.082;2023-03-01T14:46:30;8.30;;;5.33;;
5085;SDS011;4715;51.660;7.082;2023-03-01T14:48:55;5.80;;;5.23;;
5085;SDS011;4715;51.660;7.082;2023-03-01T14:51:19;6.77;;;6.17;;
5085;SDS011;4715;51.660;7.082;2023-03-01T14:53:41;5.87;;;5.37;;
5085;SDS011;4715;51.660;7.082;2023-03-01T14:56:03;7.63;;;5.87;;
5085;SDS011;4715;51.660;7.082;2023-03-01T14:58:26;5.40;;;4.90;;
5085;SDS011;4715;51.660;7.082;2023-03-01T15:00:49;5.53;;;5.07;;
5085;SDS011;4715;51.660;7.082;2023-03-01T15:03:16;4.90;;;4.40;;
5085;SDS011;4715;51.660;7.082;2023-03-01T15:05:44;5.23;;;4.80;;
5085;SDS011;4715;51.660;7.082;2023-03-01T15:08:06;4.87;;;4.40;;
5085;SDS011;4715;51.660;7.082;2023-03-01T15:10:35;4.80;;;4.40;;
5085;SDS011;4715;51.660;7.082;2023-03-01T15:13:09;5.70;;;4.67;;
5085;SDS011;4715;51.660;7.082;2023-03-01T15:15:35;5.73;;;5.23;;
5085;SDS011;4715;51.660;7.082;2023-03-01T15:18:02;6.67;;;5.33;;
5085;SDS011;4715;51.660;7.082;2023-03-01T15:20:28;5.43;;;4.93;;
5085;SDS011;4715;51.660;7.082;2023-03-01T15:22:55;4.63;;;4.33;;
5085;SDS011;4715;51.660;7.082;2023-03-01T15:25:18;5.90;;;4.40;;
5085;SDS011;4715;51.660;7.082;2023-03-01T15:27:45;6.97;;;4.40;;
5085;SDS011;4715;51.660;7.082;2023-03-01T15:30:13;4.10;;;3.70;;
5085;SDS011;4715;51.660;7.082;2023-03-01T15:32:39;4.50;;;4.20;;
5085;SDS011;4715;51.660;7.082;2023-03-01T15:38:00;14.73;;;5.60;;
5085;SDS011;4715;51.660;7.082;2023-03-01T15:40:23;5.10;;;4.60;;
5085;SDS011;4715;51.660;7.082;2023-03-01T15:42:51;6.43;;;5.30;;
5085;SDS011;4715;51.660;7.082;2023-03-01T15:45:20;5.30;;;4.80;;
5085;SDS011;4715;51.660;7.082;2023-03-01T15:47:46;6.97;;;5.30;;